CheckWX is a tool to help pilots better visualize weather data.  It is not intended as a substitute for an official pre-flight weather briefing.

03:50:49 UTC

ENFB METAR
Oslo, Fornebu Airport
Oslo, Norway
Current

31 mins ago

ENFB 210320Z AUTO 24044G54KT 9999NDV SCT032/// BKN039/// BKN060/// 06/01 Q0987 W///S6
Observed
Feb-21 @ 03:20 UTC
Wind
  • 240° at 44 KTS
  • Gusting to 54 KTS
Visibility
Cloud Levels
  • Scattered at 3,200' AGL
  • Broken at 3,900' AGL
  • Broken at 6,000' AGL
Temperature
C / 43°F
Dewpoint
C / 34°F
Humidity
71%
Altimeter
29.14" Hg
Pressure
986.92 hPa
Previous

1 hour ago

ENFB 210250Z AUTO 23040KT 9999NDV BKN027/// 06/02 Q0987 W///S6
Observed
Feb-21 @ 02:50 UTC
Wind
  • 230° at 40 KTS
Visibility
Cloud Levels
  • Broken at 2,700' AGL
Temperature
C / 43°F
Dewpoint
C / 36°F
Humidity
76%
Altimeter
29.14" Hg
Pressure
986.92 hPa
Previous

2 hours ago

ENFB 210220Z AUTO 24036KT 9999NDV -SHRA BKN030/// 06/02 Q0987 W///S6
Observed
Feb-21 @ 02:20 UTC
Wind
  • 240° at 36 KTS
Visibility
Conditions
Light Rain
Cloud Levels
  • Broken at 3,000' AGL
Temperature
C / 43°F
Dewpoint
C / 36°F
Humidity
76%
Altimeter
29.14" Hg
Pressure
986.92 hPa